sensor_id;sensor_type;location;lat;lon;timestamp;temperature;humidity
3416;DHT22;1721;51.238;9.562;2023-02-28T00:01:25;2.50;80.70
3416;DHT22;1721;51.238;9.562;2023-02-28T00:03:50;2.50;80.70
3416;DHT22;1721;51.238;9.562;2023-02-28T00:06:16;2.40;80.50
3416;DHT22;1721;51.238;9.562;2023-02-28T00:08:41;2.40;78.90
3416;DHT22;1721;51.238;9.562;2023-02-28T00:11:08;2.30;79.60
3416;DHT22;1721;51.238;9.562;2023-02-28T00:13:35;2.30;79.00
3416;DHT22;1721;51.238;9.562;2023-02-28T00:16:04;2.40;78.80
3416;DHT22;1721;51.238;9.562;2023-02-28T00:18:30;2.40;79.00
3416;DHT22;1721;51.238;9.562;2023-02-28T00:20:56;2.30;80.10
3416;DHT22;1721;51.238;9.562;2023-02-28T00:23:21;2.40;80.10
3416;DHT22;1721;51.238;9.562;2023-02-28T00:25:47;2.40;80.00
3416;DHT22;1721;51.238;9.562;2023-02-28T00:28:12;2.40;79.50
3416;DHT22;1721;51.238;9.562;2023-02-28T00:30:38;2.40;79.60
3416;DHT22;1721;51.238;9.562;2023-02-28T00:33:03;2.50;79.20
3416;DHT22;1721;51.238;9.562;2023-02-28T00:35:29;2.30;79.90
3416;DHT22;1721;51.238;9.562;2023-02-28T00:37:54;2.20;80.00
3416;DHT22;1721;51.238;9.562;2023-02-28T00:40:20;2.10;80.40
3416;DHT22;1721;51.238;9.562;2023-02-28T00:42:45;2.00;80.50
3416;DHT22;1721;51.238;9.562;2023-02-28T00:45:11;1.90;81.90
3416;DHT22;1721;51.238;9.562;2023-02-28T00:47:36;1.80;82.90
3416;DHT22;1721;51.238;9.562;2023-02-28T00:50:02;1.80;82.90
3416;DHT22;1721;51.238;9.562;2023-02-28T00:52:28;1.70;82.70
3416;DHT22;1721;51.238;9.562;2023-02-28T00:54:54;1.70;82.70
3416;DHT22;1721;51.238;9.562;2023-02-28T00:57:19;1.70;83.20
3416;DHT22;1721;51.238;9.562;2023-02-28T00:59:45;1.70;82.90
3416;DHT22;1721;51.238;9.562;2023-02-28T01:02:10;1.80;83.20
3416;DHT22;1721;51.238;9.562;2023-02-28T01:04:36;1.80;83.40
3416;DHT22;1721;51.238;9.562;2023-02-28T01:07:01;1.80;83.70
3416;DHT22;1721;51.238;9.562;2023-02-28T01:09:27;1.80;83.90
3416;DHT22;1721;51.238;9.562;2023-02-28T01:11:52;1.90;84.20
3416;DHT22;1721;51.238;9.562;2023-02-28T01:14:18;1.90;84.40
3416;DHT22;1721;51.238;9.562;2023-02-28T01:16:43;2.00;84.60
3416;DHT22;1721;51.238;9.562;2023-02-28T01:19:09;2.00;83.50
3416;DHT22;1721;51.238;9.562;2023-02-28T01:21:34;2.00;83.70
3416;DHT22;1721;51.238;9.562;2023-02-28T01:24:03;2.00;83.40
3416;DHT22;1721;51.238;9.562;2023-02-28T01:26:29;2.00;83.70
3416;DHT22;1721;51.238;9.562;2023-02-28T01:28:54;2.00;83.50
3416;DHT22;1721;51.238;9.562;2023-02-28T01:31:20;2.00;84.20
3416;DHT22;1721;51.238;9.562;2023-02-28T01:33:46;2.00;84.90
3416;DHT22;1721;51.238;9.562;2023-02-28T01:36:16;2.00;85.00
3416;DHT22;1721;51.238;9.562;2023-02-28T01:38:43;1.90;85.00
3416;DHT22;1721;51.238;9.562;2023-02-28T01:41:09;1.90;85.00
3416;DHT22;1721;51.238;9.562;2023-02-28T01:46:08;2.00;84.20
3416;DHT22;1721;51.238;9.562;2023-02-28T01:48:38;2.00;83.90
3416;DHT22;1721;51.238;9.562;2023-02-28T01:51:07;1.80;84.30
3416;DHT22;1721;51.238;9.562;2023-02-28T01:53:39;1.80;85.50
3416;DHT22;1721;51.238;9.562;2023-02-28T01:56:07;1.70;86.10
3416;DHT22;1721;51.238;9.562;2023-02-28T01:58:34;1.80;86.20
3416;DHT22;1721;51.238;9.562;2023-02-28T02:01:00;1.80;84.00
3416;DHT22;1721;51.238;9.562;2023-02-28T02:03:28;1.90;83.10
3416;DHT22;1721;51.238;9.562;2023-02-28T02:05:54;1.90;82.30
3416;DHT22;1721;51.238;9.562;2023-02-28T02:08:21;1.90;82.70
3416;DHT22;1721;51.238;9.562;2023-02-28T02:10:48;1.90;83.20
3416;DHT22;1721;51.238;9.562;2023-02-28T02:18:42;2.00;82.90
3416;DHT22;1721;51.238;9.562;2023-02-28T02:24:03;2.00;82.30
3416;DHT22;1721;51.238;9.562;2023-02-28T02:29:46;2.00;84.00
3416;DHT22;1721;51.238;9.562;2023-02-28T02:37:06;2.00;85.40
3416;DHT22;1721;51.238;9.562;2023-02-28T02:39:40;2.00;85.30
3416;DHT22;1721;51.238;9.562;2023-02-28T02:42:15;2.00;85.50
3416;DHT22;1721;51.238;9.562;2023-02-28T02:44:50;2.10;85.10
3416;DHT22;1721;51.238;9.562;2023-02-28T02:47:19;2.10;84.50
3416;DHT22;1721;51.238;9.562;2023-02-28T02:49:47;2.20;83.90
3416;DHT22;1721;51.238;9.562;2023-02-28T02:52:14;2.20;82.80
3416;DHT22;1721;51.238;9.562;2023-02-28T02:54:41;2.10;84.10
3416;DHT22;1721;51.238;9.562;2023-02-28T02:57:11;2.00;84.70
3416;DHT22;1721;51.238;9.562;2023-02-28T02:59:38;2.00;84.70
3416;DHT22;1721;51.238;9.562;2023-02-28T03:02:06;2.10;85.00
3416;DHT22;1721;51.238;9.562;2023-02-28T03:04:33;2.20;84.80
3416;DHT22;1721;51.238;9.562;2023-02-28T03:07:00;2.20;84.90
3416;DHT22;1721;51.238;9.562;2023-02-28T03:09:25;2.20;85.00
3416;DHT22;1721;51.238;9.562;2023-02-28T03:11:54;2.30;84.70
3416;DHT22;1721;51.238;9.562;2023-02-28T03:22:28;2.30;85.10
3416;DHT22;1721;51.238;9.562;2023-02-28T03:27:40;2.30;85.10
3416;DHT22;1721;51.238;9.562;2023-02-28T03:30:50;2.30;84.30
3416;DHT22;1721;51.238;9.562;2023-02-28T03:35:29;2.40;82.40
3416;DHT22;1721;51.238;9.562;2023-02-28T03:38:07;2.40;81.60
3416;DHT22;1721;51.238;9.562;2023-02-28T03:40:33;2.40;80.70
3416;DHT22;1721;51.238;9.562;2023-02-28T03:43:02;2.40;80.90
3416;DHT22;1721;51.238;9.562;2023-02-28T03:45:29;2.40;80.70
3416;DHT22;1721;51.238;9.562;2023-02-28T03:48:01;2.40;80.90
3416;DHT22;1721;51.238;9.562;2023-02-28T03:50:30;2.30;81.10
3416;DHT22;1721;51.238;9.562;2023-02-28T03:53:06;2.30;81.70
3416;DHT22;1721;51.238;9.562;2023-02-28T03:55:34;2.30;81.60
3416;DHT22;1721;51.238;9.562;2023-02-28T03:58:04;2.50;80.90
3416;DHT22;1721;51.238;9.562;2023-02-28T04:00:31;2.50;80.40
3416;DHT22;1721;51.238;9.562;2023-02-28T04:02:58;2.50;80.70
3416;DHT22;1721;51.238;9.562;2023-02-28T04:05:23;2.50;80.80
3416;DHT22;1721;51.238;9.562;2023-02-28T04:07:49;2.50;80.90
3416;DHT22;1721;51.238;9.562;2023-02-28T04:10:15;2.40;81.50
3416;DHT22;1721;51.238;9.562;2023-02-28T04:12:41;2.10;82.40
3416;DHT22;1721;51.238;9.562;2023-02-28T04:15:07;2.00;82.50
3416;DHT22;1721;51.238;9.562;2023-02-28T04:17:32;1.90;82.90
3416;DHT22;1721;51.238;9.562;2023-02-28T04:19:58;1.90;82.90
3416;DHT22;1721;51.238;9.562;2023-02-28T04:22:23;2.00;82.00
3416;DHT22;1721;51.238;9.562;2023-02-28T04:24:52;2.10;82.00
3416;DHT22;1721;51.238;9.562;2023-02-28T04:27:19;1.90;82.20
3416;DHT22;1721;51.238;9.562;2023-02-28T04:29:45;1.90;83.00
3416;DHT22;1721;51.238;9.562;2023-02-28T04:32:10;2.00;83.40
3416;DHT22;1721;51.238;9.562;2023-02-28T04:34:36;2.10;82.80
3416;DHT22;1721;51.238;9.562;2023-02-28T04:37:01;2.20;82.30
3416;DHT22;1721;51.238;9.562;2023-02-28T04:39:28;2.20;81.00
3416;DHT22;1721;51.238;9.562;2023-02-28T04:41:54;1.90;80.40
3416;DHT22;1721;51.238;9.562;2023-02-28T04:44:20;1.80;81.00
3416;DHT22;1721;51.238;9.562;2023-02-28T04:46:47;1.80;80.40
3416;DHT22;1721;51.238;9.562;2023-02-28T04:49:12;1.90;80.00
3416;DHT22;1721;51.238;9.562;2023-02-28T04:51:38;1.70;79.40
3416;DHT22;1721;51.238;9.562;2023-02-28T04:54:04;1.70;78.90
3416;DHT22;1721;51.238;9.562;2023-02-28T04:56:29;1.70;78.60
3416;DHT22;1721;51.238;9.562;2023-02-28T04:58:55;1.70;78.40
3416;DHT22;1721;51.238;9.562;2023-02-28T05:03:46;1.60;78.40
3416;DHT22;1721;51.238;9.562;2023-02-28T05:06:12;1.60;78.50
3416;DHT22;1721;51.238;9.562;2023-02-28T05:08:37;1.50;78.80
3416;DHT22;1721;51.238;9.562;2023-02-28T05:11:03;1.50;79.20
3416;DHT22;1721;51.238;9.562;2023-02-28T05:13:29;1.50;79.50
3416;DHT22;1721;51.238;9.562;2023-02-28T05:15:55;1.50;79.90
3416;DHT22;1721;51.238;9.562;2023-02-28T05:18:20;1.60;80.40
3416;DHT22;1721;51.238;9.562;2023-02-28T05:20:46;1.60;80.50
3416;DHT22;1721;51.238;9.562;2023-02-28T05:23:12;1.60;80.30
3416;DHT22;1721;51.238;9.562;2023-02-28T05:25:38;1.70;80.60
3416;DHT22;1721;51.238;9.562;2023-02-28T05:28:03;1.70;81.40
3416;DHT22;1721;51.238;9.562;2023-02-28T05:30:29;1.70;81.30
3416;DHT22;1721;51.238;9.562;2023-02-28T05:32:55;1.70;81.30
3416;DHT22;1721;51.238;9.562;2023-02-28T05:35:20;1.70;81.50
3416;DHT22;1721;51.238;9.562;2023-02-28T05:37:46;1.80;81.30
3416;DHT22;1721;51.238;9.562;2023-02-28T05:40:11;1.80;81.50
3416;DHT22;1721;51.238;9.562;2023-02-28T05:42:37;1.80;81.70
3416;DHT22;1721;51.238;9.562;2023-02-28T05:45:03;1.80;81.70
3416;DHT22;1721;51.238;9.562;2023-02-28T05:47:29;1.70;81.40
3416;DHT22;1721;51.238;9.562;2023-02-28T05:49:54;1.80;81.70
3416;DHT22;1721;51.238;9.562;2023-02-28T05:52:20;1.80;81.50
3416;DHT22;1721;51.238;9.562;2023-02-28T05:54:46;1.80;81.70
3416;DHT22;1721;51.238;9.562;2023-02-28T05:57:11;1.80;81.70
3416;DHT22;1721;51.238;9.562;2023-02-28T05:59:37;1.80;81.10
3416;DHT22;1721;51.238;9.562;2023-02-28T06:02:05;1.80;81.10
3416;DHT22;1721;51.238;9.562;2023-02-28T06:04:31;1.90;79.70
3416;DHT22;1721;51.238;9.562;2023-02-28T06:06:56;1.90;79.00
3416;DHT22;1721;51.238;9.562;2023-02-28T06:09:22;1.90;78.20
3416;DHT22;1721;51.238;9.562;2023-02-28T06:11:48;1.90;78.30
3416;DHT22;1721;51.238;9.562;2023-02-28T06:14:14;1.90;78.20
3416;DHT22;1721;51.238;9.562;2023-02-28T06:16:41;2.00;78.50
3416;DHT22;1721;51.238;9.562;2023-02-28T06:19:06;2.00;78.70
3416;DHT22;1721;51.238;9.562;2023-02-28T06:21:32;1.80;80.70
3416;DHT22;1721;51.238;9.562;2023-02-28T06:23:58;1.50;82.20
3416;DHT22;1721;51.238;9.562;2023-02-28T06:26:24;1.60;83.50
3416;DHT22;1721;51.238;9.562;2023-02-28T06:28:49;1.30;84.90
3416;DHT22;1721;51.238;9.562;2023-02-28T06:31:15;1.50;85.30
3416;DHT22;1721;51.238;9.562;2023-02-28T06:33:42;1.80;84.50
3416;DHT22;1721;51.238;9.562;2023-02-28T06:36:08;1.80;83.30
3416;DHT22;1721;51.238;9.562;2023-02-28T06:38:34;1.80;83.20
3416;DHT22;1721;51.238;9.562;2023-02-28T06:41:00;1.70;83.10
3416;DHT22;1721;51.238;9.562;2023-02-28T06:43:28;1.80;83.20
3416;DHT22;1721;51.238;9.562;2023-02-28T06:45:54;1.60;82.90
3416;DHT22;1721;51.238;9.562;2023-02-28T06:48:21;1.60;83.00
3416;DHT22;1721;51.238;9.562;2023-02-28T06:50:46;1.50;83.20
3416;DHT22;1721;51.238;9.562;2023-02-28T06:53:12;1.40;83.60
3416;DHT22;1721;51.238;9.562;2023-02-28T06:55:38;1.60;83.60
3416;DHT22;1721;51.238;9.562;2023-02-28T06:58:04;1.70;83.40
3416;DHT22;1721;51.238;9.562;2023-02-28T07:00:42;1.80;83.60
3416;DHT22;1721;51.238;9.562;2023-02-28T07:03:09;2.00;82.80
3416;DHT22;1721;51.238;9.562;2023-02-28T07:05:36;1.90;82.80
3416;DHT22;1721;51.238;9.562;2023-02-28T07:08:01;2.00;82.80
3416;DHT22;1721;51.238;9.562;2023-02-28T07:10:28;2.20;81.90
3416;DHT22;1721;51.238;9.562;2023-02-28T07:12:54;2.30;81.00
3416;DHT22;1721;51.238;9.562;2023-02-28T07:15:19;2.20;81.50
3416;DHT22;1721;51.238;9.562;2023-02-28T07:17:44;2.20;81.00
3416;DHT22;1721;51.238;9.562;2023-02-28T07:20:10;2.20;81.10
3416;DHT22;1721;51.238;9.562;2023-02-28T07:22:36;2.20;81.60
3416;DHT22;1721;51.238;9.562;2023-02-28T07:25:01;2.20;81.90
3416;DHT22;1721;51.238;9.562;2023-02-28T07:27:27;2.30;81.70
3416;DHT22;1721;51.238;9.562;2023-02-28T07:29:52;2.30;80.70
3416;DHT22;1721;51.238;9.562;2023-02-28T07:32:18;2.30;81.10
3416;DHT22;1721;51.238;9.562;2023-02-28T07:34:44;2.30;81.50
3416;DHT22;1721;51.238;9.562;2023-02-28T07:37:10;2.30;81.30
3416;DHT22;1721;51.238;9.562;2023-02-28T07:39:36;2.30;80.10
3416;DHT22;1721;51.238;9.562;2023-02-28T07:42:04;2.40;80.30
3416;DHT22;1721;51.238;9.562;2023-02-28T07:44:31;2.60;80.30
3416;DHT22;1721;51.238;9.562;2023-02-28T07:46:57;2.40;80.70
3416;DHT22;1721;51.238;9.562;2023-02-28T07:49:22;2.30;79.70
3416;DHT22;1721;51.238;9.562;2023-02-28T07:51:48;2.10;80.90
3416;DHT22;1721;51.238;9.562;2023-02-28T07:54:13;1.90;80.40
3416;DHT22;1721;51.238;9.562;2023-02-28T07:56:39;2.10;81.10
3416;DHT22;1721;51.238;9.562;2023-02-28T07:59:04;2.30;81.30
3416;DHT22;1721;51.238;9.562;2023-02-28T08:01:30;2.40;80.50
3416;DHT22;1721;51.238;9.562;2023-02-28T08:03:55;2.40;80.40
3416;DHT22;1721;51.238;9.562;2023-02-28T08:06:22;2.40;80.20
3416;DHT22;1721;51.238;9.562;2023-02-28T08:08:48;2.20;80.20
3416;DHT22;1721;51.238;9.562;2023-02-28T08:11:14;2.20;80.60
3416;DHT22;1721;51.238;9.562;2023-02-28T08:13:40;2.20;80.90
3416;DHT22;1721;51.238;9.562;2023-02-28T08:16:07;2.30;80.10
3416;DHT22;1721;51.238;9.562;2023-02-28T08:18:33;2.40;79.60
3416;DHT22;1721;51.238;9.562;2023-02-28T08:20:58;2.40;77.80
3416;DHT22;1721;51.238;9.562;2023-02-28T08:23:24;2.50;77.50
3416;DHT22;1721;51.238;9.562;2023-02-28T08:25:53;2.50;73.70
3416;DHT22;1721;51.238;9.562;2023-02-28T08:28:20;2.70;73.20
3416;DHT22;1721;51.238;9.562;2023-02-28T08:30:45;2.40;72.50
3416;DHT22;1721;51.238;9.562;2023-02-28T08:33:10;2.40;72.20
3416;DHT22;1721;51.238;9.562;2023-02-28T08:35:36;2.40;70.00
3416;DHT22;1721;51.238;9.562;2023-02-28T08:38:02;2.40;68.40
3416;DHT22;1721;51.238;9.562;2023-02-28T08:40:27;2.40;68.80
3416;DHT22;1721;51.238;9.562;2023-02-28T08:42:53;2.40;68.30
3416;DHT22;1721;51.238;9.562;2023-02-28T08:45:18;2.20;69.80
3416;DHT22;1721;51.238;9.562;2023-02-28T08:47:44;2.20;69.70
3416;DHT22;1721;51.238;9.562;2023-02-28T08:50:09;2.20;66.90
3416;DHT22;1721;51.238;9.562;2023-02-28T08:52:35;2.30;69.00
3416;DHT22;1721;51.238;9.562;2023-02-28T08:55:00;2.10;68.80
3416;DHT22;1721;51.238;9.562;2023-02-28T08:57:26;2.20;67.70
3416;DHT22;1721;51.238;9.562;2023-02-28T08:59:52;2.30;66.70
3416;DHT22;1721;51.238;9.562;2023-02-28T09:02:18;2.40;66.00
3416;DHT22;1721;51.238;9.562;2023-02-28T09:04:44;2.50;66.40
3416;DHT22;1721;51.238;9.562;2023-02-28T09:07:12;2.50;66.60
3416;DHT22;1721;51.238;9.562;2023-02-28T09:09:37;2.50;65.40
3416;DHT22;1721;51.238;9.562;2023-02-28T09:12:20;2.40;65.60
3416;DHT22;1721;51.238;9.562;2023-02-28T09:14:46;2.50;65.70
3416;DHT22;1721;51.238;9.562;2023-02-28T09:17:11;2.50;66.30
3416;DHT22;1721;51.238;9.562;2023-02-28T09:19:37;2.70;64.50
3416;DHT22;1721;51.238;9.562;2023-02-28T09:22:02;2.80;64.40
3416;DHT22;1721;51.238;9.562;2023-02-28T09:24:27;3.00;64.50
3416;DHT22;1721;51.238;9.562;2023-02-28T09:26:53;3.00;65.20
3416;DHT22;1721;51.238;9.562;2023-02-28T09:29:18;3.10;65.90
3416;DHT22;1721;51.238;9.562;2023-02-28T09:31:44;3.10;65.40
3416;DHT22;1721;51.238;9.562;2023-02-28T09:34:09;3.20;66.60
3416;DHT22;1721;51.238;9.562;2023-02-28T09:36:35;3.50;65.00
3416;DHT22;1721;51.238;9.562;2023-02-28T09:39:02;3.70;63.50
3416;DHT22;1721;51.238;9.562;2023-02-28T09:41:29;3.60;63.60
3416;DHT22;1721;51.238;9.562;2023-02-28T09:44:00;3.90;63.60
3416;DHT22;1721;51.238;9.562;2023-02-28T09:46:34;4.00;62.70
3416;DHT22;1721;51.238;9.562;2023-02-28T09:49:04;4.00;63.90
3416;DHT22;1721;51.238;9.562;2023-02-28T09:51:33;4.30;64.40
3416;DHT22;1721;51.238;9.562;2023-02-28T09:54:00;4.30;62.50
3416;DHT22;1721;51.238;9.562;2023-02-28T09:56:33;4.60;62.90
3416;DHT22;1721;51.238;9.562;2023-02-28T10:02:05;4.10;62.20
3416;DHT22;1721;51.238;9.562;2023-02-28T10:07:07;3.80;63.40
3416;DHT22;1721;51.238;9.562;2023-02-28T10:09:42;3.90;64.90
3416;DHT22;1721;51.238;9.562;2023-02-28T10:12:09;4.00;62.80
3416;DHT22;1721;51.238;9.562;2023-02-28T10:14:35;4.10;61.90
3416;DHT22;1721;51.238;9.562;2023-02-28T10:17:02;4.10;63.30
3416;DHT22;1721;51.238;9.562;2023-02-28T10:22:16;3.60;64.30
3416;DHT22;1721;51.238;9.562;2023-02-28T10:24:43;3.60;65.00
3416;DHT22;1721;51.238;9.562;2023-02-28T10:27:19;3.90;63.00
3416;DHT22;1721;51.238;9.562;2023-02-28T10:29:46;3.70;62.80
3416;DHT22;1721;51.238;9.562;2023-02-28T10:32:14;3.60;63.10
3416;DHT22;1721;51.238;9.562;2023-02-28T10:34:40;3.40;64.50
3416;DHT22;1721;51.238;9.562;2023-02-28T10:37:05;3.50;63.70
3416;DHT22;1721;51.238;9.562;2023-02-28T10:42:01;3.60;63.80
3416;DHT22;1721;51.238;9.562;2023-02-28T10:44:27;3.50;63.60
3416;DHT22;1721;51.238;9.562;2023-02-28T10:46:52;3.20;63.50
3416;DHT22;1721;51.238;9.562;2023-02-28T10:49:25;3.50;63.80
3416;DHT22;1721;51.238;9.562;2023-02-28T10:51:53;3.60;63.90
3416;DHT22;1721;51.238;9.562;2023-02-28T10:54:22;3.70;63.50
3416;DHT22;1721;51.238;9.562;2023-02-28T10:57:22;3.60;63.60
3416;DHT22;1721;51.238;9.562;2023-02-28T10:59:41;3.60;63.80
3416;DHT22;1721;51.238;9.562;2023-02-28T11:02:28;3.20;64.50
3416;DHT22;1721;51.238;9.562;2023-02-28T11:04:54;3.50;64.90
3416;DHT22;1721;51.238;9.562;2023-02-28T11:07:22;3.60;64.30
3416;DHT22;1721;51.238;9.562;2023-02-28T11:09:48;3.70;64.40
3416;DHT22;1721;51.238;9.562;2023-02-28T11:12:21;3.80;63.70
3416;DHT22;1721;51.238;9.562;2023-02-28T11:15:18;3.80;63.40
3416;DHT22;1721;51.238;9.562;2023-02-28T11:17:53;3.90;63.50
3416;DHT22;1721;51.238;9.562;2023-02-28T11:20:23;3.90;64.60
3416;DHT22;1721;51.238;9.562;2023-02-28T11:22:50;3.90;62.80
3416;DHT22;1721;51.238;9.562;2023-02-28T11:25:19;3.70;63.30
3416;DHT22;1721;51.238;9.562;2023-02-28T11:27:47;3.70;64.00
3416;DHT22;1721;51.238;9.562;2023-02-28T11:30:28;3.60;64.80
3416;DHT22;1721;51.238;9.562;2023-02-28T11:32:54;3.50;65.20
3416;DHT22;1721;51.238;9.562;2023-02-28T11:35:23;3.50;64.20
3416;DHT22;1721;51.238;9.562;2023-02-28T11:37:49;3.60;63.90
3416;DHT22;1721;51.238;9.562;2023-02-28T11:40:17;3.70;64.50
3416;DHT22;1721;51.238;9.562;2023-02-28T11:45:22;4.10;64.70
3416;DHT22;1721;51.238;9.562;2023-02-28T11:53:01;4.30;63.70
3416;DHT22;1721;51.238;9.562;2023-02-28T11:55:32;4.30;62.80
3416;DHT22;1721;51.238;9.562;2023-02-28T11:58:11;4.40;61.70
3416;DHT22;1721;51.238;9.562;2023-02-28T12:01:01;4.50;62.20
3416;DHT22;1721;51.238;9.562;2023-02-28T12:08:38;4.30;62.00
3416;DHT22;1721;51.238;9.562;2023-02-28T12:11:16;4.30;62.20
3416;DHT22;1721;51.238;9.562;2023-02-28T12:13:48;4.20;62.70
3416;DHT22;1721;51.238;9.562;2023-02-28T12:16:26;4.20;63.20
3416;DHT22;1721;51.238;9.562;2023-02-28T12:18:58;4.30;62.40
3416;DHT22;1721;51.238;9.562;2023-02-28T12:29:22;4.80;61.90
3416;DHT22;1721;51.238;9.562;2023-02-28T12:31:50;4.70;62.40
3416;DHT22;1721;51.238;9.562;2023-02-28T12:34:22;4.50;63.00
3416;DHT22;1721;51.238;9.562;2023-02-28T12:36:49;4.60;62.20
3416;DHT22;1721;51.238;9.562;2023-02-28T12:39:22;4.50;61.50
3416;DHT22;1721;51.238;9.562;2023-02-28T12:41:51;4.60;63.80
3416;DHT22;1721;51.238;9.562;2023-02-28T12:46:57;4.70;61.80
3416;DHT22;1721;51.238;9.562;2023-02-28T12:49:28;4.60;61.70
3416;DHT22;1721;51.238;9.562;2023-02-28T12:51:57;4.40;62.00
3416;DHT22;1721;51.238;9.562;2023-02-28T12:56:55;4.20;63.50
3416;DHT22;1721;51.238;9.562;2023-02-28T13:06:56;4.60;62.40
3416;DHT22;1721;51.238;9.562;2023-02-28T13:09:25;4.70;63.20
3416;DHT22;1721;51.238;9.562;2023-02-28T13:11:51;4.80;62.20
3416;DHT22;1721;51.238;9.562;2023-02-28T13:16:59;4.50;63.60
3416;DHT22;1721;51.238;9.562;2023-02-28T13:19:26;4.40;61.70
3416;DHT22;1721;51.238;9.562;2023-02-28T13:21:52;4.30;63.00
3416;DHT22;1721;51.238;9.562;2023-02-28T13:29:28;4.30;62.70
3416;DHT22;1721;51.238;9.562;2023-02-28T13:34:49;4.70;64.60
3416;DHT22;1721;51.238;9.562;2023-02-28T13:39:55;4.30;63.30
3416;DHT22;1721;51.238;9.562;2023-02-28T13:55:24;4.70;63.80
3416;DHT22;1721;51.238;9.562;2023-02-28T13:58:10;4.90;61.90
3416;DHT22;1721;51.238;9.562;2023-02-28T14:03:17;4.70;62.40
3416;DHT22;1721;51.238;9.562;2023-02-28T14:05:48;4.90;62.10
3416;DHT22;1721;51.238;9.562;2023-02-28T14:08:33;5.00;62.50
3416;DHT22;1721;51.238;9.562;2023-02-28T14:11:03;5.10;63.00
3416;DHT22;1721;51.238;9.562;2023-02-28T14:13:37;5.00;62.70
3416;DHT22;1721;51.238;9.562;2023-02-28T14:16:09;4.60;62.40
3416;DHT22;1721;51.238;9.562;2023-02-28T14:18:58;4.80;62.40
3416;DHT22;1721;51.238;9.562;2023-02-28T14:21:25;4.80;62.00
3416;DHT22;1721;51.238;9.562;2023-02-28T14:29:15;5.20;62.40
3416;DHT22;1721;51.238;9.562;2023-02-28T14:31:48;5.30;62.80
3416;DHT22;1721;51.238;9.562;2023-02-28T14:36:44;5.20;63.20
3416;DHT22;1721;51.238;9.562;2023-02-28T14:39:14;5.10;62.60
3416;DHT22;1721;51.238;9.562;2023-02-28T14:41:41;5.10;63.20
3416;DHT22;1721;51.238;9.562;2023-02-28T14:44:25;5.00;63.50
3416;DHT22;1721;51.238;9.562;2023-02-28T14:52:00;5.20;62.60
3416;DHT22;1721;51.238;9.562;2023-02-28T14:54:27;5.40;61.80
3416;DHT22;1721;51.238;9.562;2023-02-28T14:56:52;5.40;61.60
3416;DHT22;1721;51.238;9.562;2023-02-28T14:59:23;5.40;62.00
3416;DHT22;1721;51.238;9.562;2023-02-28T15:01:49;5.20;62.60
3416;DHT22;1721;51.238;9.562;2023-02-28T15:04:21;4.80;62.50
3416;DHT22;1721;51.238;9.562;2023-02-28T15:07:06;4.50;63.60
3416;DHT22;1721;51.238;9.562;2023-02-28T15:09:32;4.30;64.70
3416;DHT22;1721;51.238;9.562;2023-02-28T15:11:57;4.40;65.00
3416;DHT22;1721;51.238;9.562;2023-02-28T15:14:23;4.50;64.60
3416;DHT22;1721;51.238;9.562;2023-02-28T15:16:51;4.70;64.70
3416;DHT22;1721;51.238;9.562;2023-02-28T15:19:20;4.70;64.00
3416;DHT22;1721;51.238;9.562;2023-02-28T15:21:48;5.10;63.60
3416;DHT22;1721;51.238;9.562;2023-02-28T15:24:18;5.00;63.40
3416;DHT22;1721;51.238;9.562;2023-02-28T15:26:59;5.00;63.60
3416;DHT22;1721;51.238;9.562;2023-02-28T15:29:26;4.90;63.90
3416;DHT22;1721;51.238;9.562;2023-02-28T15:31:57;4.90;64.20
3416;DHT22;1721;51.238;9.562;2023-02-28T15:34:41;4.60;64.70
3416;DHT22;1721;51.238;9.562;2023-02-28T15:39:51;4.90;65.00
3416;DHT22;1721;51.238;9.562;2023-02-28T15:42:18;5.00;65.00
3416;DHT22;1721;51.238;9.562;2023-02-28T15:44:44;4.80;64.90
3416;DHT22;1721;51.238;9.562;2023-02-28T15:47:17;4.80;64.40
3416;DHT22;1721;51.238;9.562;2023-02-28T15:52:16;4.90;64.90
3416;DHT22;1721;51.238;9.562;2023-02-28T15:54:42;4.90;64.60
3416;DHT22;1721;51.238;9.562;2023-02-28T15:57:11;4.90;65.90
3416;DHT22;1721;51.238;9.562;2023-02-28T15:59:38;4.90;65.00
3416;DHT22;1721;51.238;9.562;2023-02-28T16:02:12;5.00;64.80
3416;DHT22;1721;51.238;9.562;2023-02-28T16:04:54;4.80;64.90
3416;DHT22;1721;51.238;9.562;2023-02-28T16:07:19;4.80;65.30
3416;DHT22;1721;51.238;9.562;2023-02-28T16:09:45;4.80;65.00
3416;DHT22;1721;51.238;9.562;2023-02-28T16:12:12;4.70;65.10
3416;DHT22;1721;51.238;9.562;2023-02-28T16:14:38;4.70;64.70
3416;DHT22;1721;51.238;9.562;2023-02-28T16:17:05;4.70;64.90
3416;DHT22;1721;51.238;9.562;2023-02-28T16:19:31;4.40;65.20
3416;DHT22;1721;51.238;9.562;2023-02-28T16:21:57;4.30;65.80
3416;DHT22;1721;51.238;9.562;2023-02-28T16:24:23;4.30;65.90
3416;DHT22;1721;51.238;9.562;2023-02-28T16:26:48;4.40;65.80
3416;DHT22;1721;51.238;9.562;2023-02-28T16:29:26;4.30;66.40
3416;DHT22;1721;51.238;9.562;2023-02-28T16:31:53;4.30;66.00
3416;DHT22;1721;51.238;9.562;2023-02-28T16:34:19;4.30;66.10
3416;DHT22;1721;51.238;9.562;2023-02-28T16:36:48;4.20;65.60
3416;DHT22;1721;51.238;9.562;2023-02-28T16:39:13;4.10;66.20
3416;DHT22;1721;51.238;9.562;2023-02-28T16:41:40;4.00;66.40
3416;DHT22;1721;51.238;9.562;2023-02-28T16:44:09;4.10;66.30
3416;DHT22;1721;51.238;9.562;2023-02-28T16:46:35;3.90;66.60
3416;DHT22;1721;51.238;9.562;2023-02-28T16:49:01;3.80;67.50
3416;DHT22;1721;51.238;9.562;2023-02-28T16:51:27;3.80;67.20
3416;DHT22;1721;51.238;9.562;2023-02-28T16:53:52;3.80;66.90
3416;DHT22;1721;51.238;9.562;2023-02-28T16:56:18;3.90;67.20
3416;DHT22;1721;51.238;9.562;2023-02-28T16:58:44;3.80;67.00
3416;DHT22;1721;51.238;9.562;2023-02-28T17:01:10;3.90;67.70
3416;DHT22;1721;51.238;9.562;2023-02-28T17:03:35;4.00;66.80
3416;DHT22;1721;51.238;9.562;2023-02-28T17:06:02;4.00;66.90
3416;DHT22;1721;51.238;9.562;2023-02-28T17:08:27;3.80;67.30
3416;DHT22;1721;51.238;9.562;2023-02-28T17:10:54;3.70;67.20
3416;DHT22;1721;51.238;9.562;2023-02-28T17:13:19;3.70;67.30
3416;DHT22;1721;51.238;9.562;2023-02-28T17:15:45;3.80;67.30
3416;DHT22;1721;51.238;9.562;2023-02-28T17:18:13;3.90;66.90
3416;DHT22;1721;51.238;9.562;2023-02-28T17:20:40;3.90;66.70
3416;DHT22;1721;51.238;9.562;2023-02-28T17:23:07;3.90;67.10
3416;DHT22;1721;51.238;9.562;2023-02-28T17:25:33;3.80;67.20
3416;DHT22;1721;51.238;9.562;2023-02-28T17:27:58;3.80;67.20
3416;DHT22;1721;51.238;9.562;2023-02-28T17:30:24;3.70;67.10
3416;DHT22;1721;51.238;9.562;2023-02-28T17:32:52;3.70;67.30
3416;DHT22;1721;51.238;9.562;2023-02-28T17:35:18;3.60;67.50
3416;DHT22;1721;51.238;9.562;2023-02-28T17:37:43;3.50;68.00
3416;DHT22;1721;51.238;9.562;2023-02-28T17:40:12;3.40;68.50
3416;DHT22;1721;51.238;9.562;2023-02-28T17:42:37;3.50;68.80
3416;DHT22;1721;51.238;9.562;2023-02-28T17:45:03;3.40;68.90
3416;DHT22;1721;51.238;9.562;2023-02-28T17:47:28;3.40;69.10
3416;DHT22;1721;51.238;9.562;2023-02-28T17:49:54;3.20;70.00
3416;DHT22;1721;51.238;9.562;2023-02-28T17:52:20;3.10;71.00
3416;DHT22;1721;51.238;9.562;2023-02-28T17:54:47;3.00;72.30
3416;DHT22;1721;51.238;9.562;2023-02-28T17:57:14;3.00;72.60
3416;DHT22;1721;51.238;9.562;2023-02-28T17:59:40;3.00;73.90
3416;DHT22;1721;51.238;9.562;2023-02-28T18:02:06;2.80;74.20
3416;DHT22;1721;51.238;9.562;2023-02-28T18:04:31;2.80;74.10
3416;DHT22;1721;51.238;9.562;2023-02-28T18:06:57;2.70;74.90
3416;DHT22;1721;51.238;9.562;2023-02-28T18:09:25;2.60;75.70
3416;DHT22;1721;51.238;9.562;2023-02-28T18:11:51;2.50;75.90
3416;DHT22;1721;51.238;9.562;2023-02-28T18:14:18;2.50;77.00
3416;DHT22;1721;51.238;9.562;2023-02-28T18:16:43;2.40;77.90
3416;DHT22;1721;51.238;9.562;2023-02-28T18:19:10;2.30;78.10
3416;DHT22;1721;51.238;9.562;2023-02-28T18:21:40;2.30;78.00
3416;DHT22;1721;51.238;9.562;2023-02-28T18:24:05;2.20;78.30
3416;DHT22;1721;51.238;9.562;2023-02-28T18:26:31;2.20;78.50